createdAt,value
2022-12-14T00:01:34.377Z,16.55
2022-12-14T00:04:01.031Z,18.20
2022-12-14T00:06:33.533Z,18.10
2022-12-14T00:09:02.368Z,16.17
2022-12-14T00:11:29.543Z,17.33
2022-12-14T00:13:59.233Z,18.40
2022-12-14T00:16:28.233Z,18.85
2022-12-14T00:18:56.399Z,15.75
2022-12-14T00:21:23.522Z,18.17
2022-12-14T00:23:51.667Z,15.13
2022-12-14T00:26:25.458Z,15.75
2022-12-14T00:28:54.050Z,15.18
2022-12-14T00:31:22.090Z,16.00
2022-12-14T00:33:50.338Z,16.75
2022-12-14T00:36:17.282Z,15.95
2022-12-14T00:38:44.266Z,17.80
2022-12-14T00:41:11.800Z,15.15
2022-12-14T00:43:38.893Z,17.38
2022-12-14T00:46:06.053Z,13.43
2022-12-14T00:48:33.287Z,16.67
2022-12-14T00:51:00.102Z,14.68
2022-12-14T00:53:26.802Z,14.77
2022-12-14T00:55:53.588Z,14.43
2022-12-14T00:58:23.594Z,13.98
2022-12-14T01:01:01.439Z,16.45
2022-12-14T01:03:28.679Z,14.50
2022-12-14T01:05:55.518Z,14.27
2022-12-14T01:08:22.350Z,17.23
2022-12-14T01:10:50.095Z,14.00
2022-12-14T01:13:16.742Z,16.05
2022-12-14T01:15:43.394Z,16.38
2022-12-14T01:18:10.128Z,14.63
2022-12-14T01:20:36.770Z,20.25
2022-12-14T01:23:03.492Z,14.90
2022-12-14T01:25:30.111Z,15.38
2022-12-14T01:27:56.723Z,16.85
2022-12-14T01:30:23.394Z,18.85
2022-12-14T01:32:50.033Z,14.95
2022-12-14T01:35:17.217Z,15.57
2022-12-14T01:37:43.854Z,14.50
2022-12-14T01:40:10.813Z,16.88
2022-12-14T01:42:37.881Z,16.75
2022-12-14T01:45:06.298Z,19.02
2022-12-14T01:47:44.164Z,17.40
2022-12-14T01:50:39.919Z,13.05
2022-12-14T01:53:13.257Z,14.75
2022-12-14T01:55:48.805Z,13.15
2022-12-14T01:58:21.125Z,15.85
2022-12-14T02:00:48.445Z,14.43
2022-12-14T02:03:25.837Z,14.73
2022-12-14T02:06:02.486Z,15.30
2022-12-14T02:08:29.852Z,15.02
2022-12-14T02:10:57.654Z,13.88
2022-12-14T02:13:31.515Z,18.48
2022-12-14T02:15:58.349Z,14.00
2022-12-14T02:18:28.045Z,14.77
2022-12-14T02:21:22.501Z,14.82
2022-12-14T02:24:01.137Z,14.65
2022-12-14T02:26:46.380Z,16.00
2022-12-14T02:29:43.728Z,17.55
2022-12-14T02:32:30.523Z,12.98
2022-12-14T02:35:07.734Z,12.95
2022-12-14T02:37:50.891Z,13.43
2022-12-14T02:40:26.212Z,13.38
2022-12-14T02:43:11.888Z,14.23
2022-12-14T02:46:21.440Z,14.05
2022-12-14T02:49:13.847Z,15.07
2022-12-14T02:52:07.817Z,13.20
2022-12-14T02:54:56.761Z,15.88
2022-12-14T02:57:27.625Z,14.75
2022-12-14T02:59:59.188Z,15.73
2022-12-14T03:02:26.948Z,13.70
2022-12-14T03:04:53.840Z,13.93
2022-12-14T03:07:31.470Z,14.80
2022-12-14T03:10:18.337Z,12.68
2022-12-14T03:12:53.645Z,14.32
2022-12-14T03:15:22.594Z,14.45
2022-12-14T03:17:52.832Z,13.00
2022-12-14T03:20:24.049Z,13.20
2022-12-14T03:22:57.782Z,15.27
2022-12-14T03:25:38.352Z,13.02
2022-12-14T03:28:13.029Z,17.00
2022-12-14T03:30:59.969Z,14.55
2022-12-14T03:33:29.255Z,19.33
2022-12-14T03:36:06.085Z,14.45
2022-12-14T03:38:43.236Z,15.38
2022-12-14T03:41:28.403Z,14.90
2022-12-14T03:44:08.565Z,16.85
2022-12-14T03:47:01.079Z,13.50
2022-12-14T03:49:55.800Z,18.13
2022-12-14T03:52:26.095Z,12.98
2022-12-14T03:55:08.888Z,15.30
2022-12-14T03:57:46.799Z,15.48
2022-12-14T04:00:21.469Z,16.98
2022-12-14T04:03:01.915Z,12.18
2022-12-14T04:05:47.000Z,14.75
2022-12-14T04:08:42.491Z,14.68
2022-12-14T04:11:32.009Z,14.80
2022-12-14T04:14:55.959Z,16.70
2022-12-14T04:17:51.041Z,13.88
2022-12-14T04:20:23.564Z,15.75
2022-12-14T04:22:57.320Z,14.68
2022-12-14T04:25:49.146Z,15.30
2022-12-14T04:28:42.267Z,13.73
2022-12-14T04:31:13.971Z,16.25
2022-12-14T04:33:48.158Z,13.45
2022-12-14T04:36:36.754Z,12.48
2022-12-14T04:39:11.574Z,19.55
2022-12-14T04:41:44.916Z,13.93
2022-12-14T04:44:22.070Z,13.68
2022-12-14T04:46:50.707Z,17.70
2022-12-14T04:49:38.442Z,13.25
2022-12-14T04:52:08.357Z,20.20
2022-12-14T04:54:46.964Z,14.35
2022-12-14T04:57:29.379Z,12.18
2022-12-14T04:59:56.525Z,13.98
2022-12-14T05:02:52.204Z,13.50
2022-12-14T05:05:55.408Z,16.67
2022-12-14T05:08:28.161Z,14.45
2022-12-14T05:11:41.358Z,14.93
2022-12-14T05:13:57.962Z,12.73
2022-12-14T05:16:25.358Z,14.20
2022-12-14T05:18:52.145Z,13.20
2022-12-14T05:21:37.554Z,14.10
2022-12-14T05:24:04.503Z,14.35
2022-12-14T05:26:31.445Z,14.40
2022-12-14T05:28:58.278Z,15.82
2022-12-14T05:31:25.591Z,16.88
2022-12-14T05:33:52.324Z,13.10
2022-12-14T05:36:19.555Z,15.23
2022-12-14T05:38:46.603Z,15.00
2022-12-14T05:41:13.583Z,13.98
2022-12-14T05:43:40.333Z,17.70
2022-12-14T05:46:07.650Z,18.50
2022-12-14T05:48:35.201Z,16.08
2022-12-14T05:51:10.057Z,15.00
2022-12-14T05:53:37.392Z,14.00
2022-12-14T05:56:05.809Z,16.23
2022-12-14T05:58:33.391Z,14.35
2022-12-14T06:01:05.331Z,15.10
2022-12-14T06:03:32.066Z,14.23
2022-12-14T06:06:07.634Z,12.07
2022-12-14T06:08:36.731Z,11.00
2022-12-14T06:11:06.245Z,15.55
2022-12-14T06:13:33.058Z,12.98
2022-12-14T06:16:23.276Z,13.98
2022-12-14T06:18:55.257Z,12.85
2022-12-14T06:21:27.006Z,12.95
2022-12-14T06:23:55.903Z,14.93
2022-12-14T06:26:23.771Z,15.98
2022-12-14T06:28:50.692Z,16.67
2022-12-14T06:31:23.667Z,13.80
2022-12-14T06:33:51.355Z,16.25
2022-12-14T06:36:21.115Z,12.77
2022-12-14T06:38:48.036Z,13.32
2022-12-14T06:41:14.673Z,19.73
2022-12-14T06:43:41.979Z,14.15
2022-12-14T06:46:15.693Z,14.32
2022-12-14T06:48:43.416Z,15.52
2022-12-14T06:51:10.350Z,18.60
2022-12-14T06:53:37.020Z,15.98
2022-12-14T06:56:11.976Z,16.85
2022-12-14T06:58:39.144Z,12.40
2022-12-14T07:01:11.135Z,13.77
2022-12-14T07:03:37.879Z,15.68
2022-12-14T07:06:05.461Z,12.93
2022-12-14T07:08:34.313Z,15.77
2022-12-14T07:11:02.757Z,12.90
2022-12-14T07:13:29.959Z,14.07
2022-12-14T07:15:58.241Z,14.55
2022-12-14T07:18:25.401Z,14.68
2022-12-14T07:21:03.921Z,16.98
2022-12-14T07:23:32.345Z,17.35
2022-12-14T07:26:08.224Z,14.18
2022-12-14T07:28:38.619Z,17.85
2022-12-14T07:31:08.531Z,14.95
2022-12-14T07:33:35.710Z,19.15
2022-12-14T07:36:11.128Z,13.70
2022-12-14T07:38:39.308Z,15.35
2022-12-14T07:41:09.779Z,17.10
2022-12-14T07:43:37.363Z,10.52
2022-12-14T07:46:06.828Z,14.10
2022-12-14T07:48:34.090Z,12.70
2022-12-14T07:51:09.410Z,15.52
2022-12-14T07:53:37.566Z,18.42
2022-12-14T07:56:07.099Z,15.15
2022-12-14T07:58:37.893Z,15.38
2022-12-14T08:01:18.180Z,15.15
2022-12-14T08:03:56.370Z,14.23
2022-12-14T08:06:25.189Z,15.82
2022-12-14T08:08:52.371Z,16.63
2022-12-14T08:11:22.132Z,18.52
2022-12-14T08:13:53.743Z,18.98
2022-12-14T08:16:20.901Z,15.80
2022-12-14T08:18:47.536Z,16.45
2022-12-14T08:21:15.682Z,18.33
2022-12-14T08:23:45.303Z,22.15
2022-12-14T08:26:12.121Z,12.43
2022-12-14T08:28:40.956Z,13.45
2022-12-14T08:31:10.925Z,13.32
2022-12-14T08:33:39.007Z,17.45
2022-12-14T08:36:10.050Z,12.27
2022-12-14T08:38:37.398Z,20.08
2022-12-14T08:41:14.749Z,16.52
2022-12-14T08:43:57.382Z,21.27
2022-12-14T08:46:25.310Z,12.88
2022-12-14T08:48:53.473Z,16.30
2022-12-14T08:51:21.583Z,16.67
2022-12-14T08:53:49.547Z,14.43
2022-12-14T08:56:19.875Z,17.30
2022-12-14T08:58:46.791Z,17.20
2022-12-14T09:01:19.508Z,16.90
2022-12-14T09:03:47.577Z,16.73
2022-12-14T09:06:20.409Z,21.00
2022-12-14T09:08:49.630Z,14.55
2022-12-14T09:11:18.885Z,25.13
2022-12-14T09:13:46.539Z,22.00
2022-12-14T09:16:14.680Z,15.65
2022-12-14T09:18:41.686Z,22.85
2022-12-14T09:21:09.172Z,15.18
2022-12-14T09:23:37.107Z,22.10
2022-12-14T09:26:05.883Z,21.25
2022-12-14T09:28:34.587Z,18.83
2022-12-14T09:31:07.781Z,16.08
2022-12-14T09:33:35.109Z,19.75
2022-12-14T09:36:03.925Z,23.10
2022-12-14T09:38:33.207Z,19.80
2022-12-14T09:41:07.419Z,19.33
2022-12-14T09:43:43.403Z,20.75
2022-12-14T09:46:32.224Z,17.65
2022-12-14T09:49:03.770Z,20.73
2022-12-14T09:51:36.676Z,15.98
2022-12-14T09:54:12.252Z,22.08
2022-12-14T09:56:43.545Z,21.25
2022-12-14T09:59:16.334Z,17.52
2022-12-14T10:08:01.767Z,19.85
2022-12-14T10:10:32.268Z,23.23
2022-12-14T10:13:17.586Z,19.65
2022-12-14T10:16:06.747Z,16.02
2022-12-14T10:19:02.198Z,20.20
2022-12-14T10:21:47.690Z,22.77
2022-12-14T10:24:25.431Z,20.92
2022-12-14T10:26:54.539Z,20.25
2022-12-14T10:29:31.165Z,18.88
2022-12-14T10:32:21.220Z,23.25
2022-12-14T10:34:48.801Z,21.10
2022-12-14T10:37:34.644Z,19.67
2022-12-14T10:40:17.501Z,21.95
2022-12-14T10:43:18.857Z,19.20
2022-12-14T10:46:14.674Z,19.45
2022-12-14T10:49:08.792Z,17.92
2022-12-14T10:51:50.242Z,20.77
2022-12-14T10:54:32.110Z,16.70
2022-12-14T10:56:59.437Z,19.95
2022-12-14T10:59:44.604Z,14.52
2022-12-14T11:02:22.320Z,17.90
2022-12-14T11:04:53.642Z,18.40
2022-12-14T11:07:24.557Z,18.15
2022-12-14T11:09:51.364Z,17.15
2022-12-14T11:12:26.811Z,20.63
2022-12-14T11:14:59.843Z,16.02
2022-12-14T11:17:34.860Z,21.33
2022-12-14T11:20:14.914Z,19.80
2022-12-14T11:22:55.119Z,17.85
2022-12-14T11:25:45.596Z,19.70
2022-12-14T11:28:37.501Z,20.20
2022-12-14T11:31:13.129Z,18.48
2022-12-14T11:33:44.396Z,19.90
2022-12-14T11:36:31.091Z,19.17
2022-12-14T11:39:00.255Z,19.73
2022-12-14T11:41:38.558Z,19.77
2022-12-14T11:44:16.071Z,19.67
2022-12-14T11:46:45.168Z,19.15
2022-12-14T11:49:25.843Z,18.45
2022-12-14T11:51:55.440Z,19.95
2022-12-14T11:54:22.064Z,24.08
2022-12-14T11:56:59.528Z,17.85
2022-12-14T11:59:36.270Z,18.55
2022-12-14T12:02:37.584Z,19.13
2022-12-14T12:05:08.697Z,19.83
2022-12-14T12:07:54.452Z,18.70
2022-12-14T12:10:25.254Z,21.25
2022-12-14T12:12:54.598Z,20.07
2022-12-14T12:15:26.569Z,17.15
2022-12-14T12:17:59.158Z,19.48
2022-12-14T12:20:28.099Z,18.73
2022-12-14T12:22:59.098Z,18.52
2022-12-14T12:25:35.190Z,17.20
2022-12-14T12:28:23.529Z,17.88
2022-12-14T12:30:54.636Z,19.52
2022-12-14T12:33:38.827Z,19.58
2022-12-14T12:36:06.015Z,18.42
2022-12-14T12:38:49.812Z,19.77
2022-12-14T12:41:49.188Z,16.52
2022-12-14T12:44:27.246Z,20.08
2022-12-14T12:47:26.770Z,21.73
2022-12-14T12:50:06.853Z,15.87
2022-12-14T12:53:03.894Z,20.50
2022-12-14T12:55:51.892Z,19.83
2022-12-14T12:58:23.934Z,27.38
2022-12-14T13:00:55.405Z,22.98
2022-12-14T13:03:32.265Z,18.63
2022-12-14T13:06:20.277Z,23.27
2022-12-14T13:08:51.573Z,18.90
2022-12-14T13:11:27.412Z,22.23
2022-12-14T13:14:17.733Z,19.38
2022-12-14T13:16:45.631Z,18.65
2022-12-14T13:19:55.883Z,20.95
2022-12-14T13:22:29.571Z,20.08
2022-12-14T13:25:18.090Z,21.75
2022-12-14T13:27:59.451Z,24.88
2022-12-14T13:30:38.879Z,23.88
2022-12-14T13:33:45.820Z,17.70
2022-12-14T13:39:00.444Z,20.98
2022-12-14T13:41:40.530Z,21.73
2022-12-14T13:44:34.428Z,18.58
2022-12-14T13:47:11.730Z,20.45
2022-12-14T13:49:38.560Z,22.42
2022-12-14T13:52:05.562Z,18.60
2022-12-14T13:54:36.993Z,20.17
2022-12-14T13:57:14.442Z,21.77
2022-12-14T13:59:44.700Z,21.77
2022-12-14T14:02:29.691Z,23.08
2022-12-14T14:05:14.749Z,21.48
2022-12-14T14:08:05.809Z,21.13
2022-12-14T14:10:39.536Z,24.53
2022-12-14T14:13:32.526Z,20.13
2022-12-14T14:16:27.593Z,20.80
2022-12-14T14:19:16.410Z,21.17
2022-12-14T14:22:22.328Z,18.23
2022-12-14T14:25:01.233Z,16.90
2022-12-14T14:27:50.102Z,18.55
2022-12-14T14:30:31.867Z,18.83
2022-12-14T14:33:35.928Z,21.77
2022-12-14T14:35:49.662Z,19.88
2022-12-14T14:38:31.909Z,17.77
2022-12-14T14:41:18.569Z,20.10
2022-12-14T14:44:03.077Z,22.92
2022-12-14T14:46:45.296Z,28.17
2022-12-14T14:49:38.536Z,21.42
2022-12-14T14:52:39.453Z,25.83
2022-12-14T14:58:23.390Z,22.92
2022-12-14T15:01:01.757Z,27.10
2022-12-14T15:03:45.431Z,24.30
2022-12-14T15:06:18.725Z,20.60
2022-12-14T15:08:53.007Z,24.60
2022-12-14T15:11:22.770Z,23.58
2022-12-14T15:14:04.046Z,26.08
2022-12-14T15:16:42.579Z,31.30
2022-12-14T15:19:22.239Z,29.52
2022-12-14T15:22:02.641Z,29.40
2022-12-14T15:24:35.162Z,26.33
2022-12-14T15:27:10.274Z,26.73
2022-12-14T15:29:36.939Z,34.08
2022-12-14T15:32:05.075Z,28.23
2022-12-14T15:34:31.871Z,28.38
2022-12-14T15:36:58.587Z,28.23
2022-12-14T15:39:35.671Z,30.95
2022-12-14T15:42:20.500Z,38.53
2022-12-14T15:44:54.572Z,39.88
2022-12-14T15:47:23.704Z,33.05
2022-12-14T15:49:53.386Z,36.80
2022-12-14T15:52:30.137Z,32.40
2022-12-14T15:54:58.557Z,35.03
2022-12-14T15:57:25.642Z,32.83
2022-12-14T15:59:56.286Z,33.15
2022-12-14T16:02:28.497Z,33.73
2022-12-14T16:04:58.157Z,41.90
2022-12-14T16:07:38.340Z,39.03
2022-12-14T16:10:39.742Z,41.28
2022-12-14T16:13:15.603Z,33.10
2022-12-14T16:15:42.736Z,29.65
2022-12-14T16:18:17.466Z,31.50
2022-12-14T16:20:54.601Z,34.42
2022-12-14T16:23:39.250Z,32.47
2022-12-14T16:26:24.649Z,33.90
2022-12-14T16:29:19.143Z,35.05
2022-12-14T16:31:46.365Z,30.80
2022-12-14T16:34:21.010Z,33.88
2022-12-14T16:37:22.666Z,36.25
2022-12-14T16:39:44.547Z,32.08
2022-12-14T16:42:23.122Z,38.38
2022-12-14T16:44:53.729Z,36.22
2022-12-14T16:47:34.018Z,33.80
2022-12-14T16:50:01.032Z,39.08
2022-12-14T16:52:31.451Z,33.80
2022-12-14T16:55:19.424Z,35.97
2022-12-14T16:57:48.906Z,38.10
2022-12-14T17:00:33.673Z,42.25
2022-12-14T17:03:05.181Z,36.97
2022-12-14T17:05:38.306Z,40.85
2022-12-14T17:08:07.431Z,45.05
2022-12-14T17:10:34.804Z,45.45
2022-12-14T17:13:03.255Z,52.90
2022-12-14T17:15:32.894Z,54.55
2022-12-14T17:18:03.667Z,51.28
2022-12-14T17:20:36.423Z,48.45
2022-12-14T17:23:04.334Z,56.50
2022-12-14T17:25:32.262Z,47.40
2022-12-14T17:28:00.122Z,47.58
2022-12-14T17:30:27.275Z,46.42
2022-12-14T17:32:55.614Z,47.90
2022-12-14T17:35:25.390Z,45.08
2022-12-14T17:37:52.545Z,47.78
2022-12-14T17:40:19.197Z,39.42
2022-12-14T17:42:52.690Z,48.15
2022-12-14T17:45:25.814Z,42.83
2022-12-14T17:47:52.733Z,41.83
2022-12-14T17:50:19.625Z,48.65
2022-12-14T17:52:46.500Z,46.85
2022-12-14T17:55:19.660Z,46.28
2022-12-14T17:57:47.370Z,48.67
2022-12-14T18:00:38.800Z,49.50
2022-12-14T18:05:33.392Z,51.53
2022-12-14T18:08:00.230Z,53.28
2022-12-14T18:10:27.146Z,53.38
2022-12-14T18:12:54.463Z,56.22
2022-12-14T18:15:37.278Z,51.97
2022-12-14T18:18:04.530Z,52.92
2022-12-14T18:20:31.343Z,56.22
2022-12-14T18:22:58.072Z,57.63
2022-12-14T18:25:33.723Z,53.83
2022-12-14T18:28:01.949Z,49.05
2022-12-14T18:30:33.393Z,61.05
2022-12-14T18:33:03.652Z,54.25
2022-12-14T18:35:32.405Z,59.25
2022-12-14T18:37:59.392Z,57.25
2022-12-14T18:40:28.204Z,51.80
2022-12-14T18:42:55.439Z,55.22
2022-12-14T18:45:23.904Z,62.70
2022-12-14T18:47:51.316Z,69.45
2022-12-14T18:50:18.835Z,56.30
2022-12-14T18:52:46.109Z,58.13
2022-12-14T18:55:17.603Z,48.75
2022-12-14T18:57:45.951Z,55.10
2022-12-14T19:00:15.469Z,51.97
2022-12-14T19:02:49.850Z,57.25
2022-12-14T19:05:23.220Z,58.45
2022-12-14T19:07:52.506Z,53.72
2022-12-14T19:10:22.111Z,56.45
2022-12-14T19:12:49.601Z,67.70
2022-12-14T19:15:23.104Z,65.68
2022-12-14T19:17:50.114Z,67.10
2022-12-14T19:20:18.101Z,77.10
2022-12-14T19:22:45.035Z,77.95
2022-12-14T19:25:12.806Z,87.70
2022-12-14T19:28:15.517Z,70.10
2022-12-14T19:30:27.100Z,77.63
2022-12-14T19:32:55.930Z,80.75
2022-12-14T19:35:24.171Z,73.05
2022-12-14T19:37:51.549Z,78.78
2022-12-14T19:40:19.144Z,75.18
2022-12-14T19:42:46.795Z,79.78
2022-12-14T19:45:14.167Z,81.97
2022-12-14T19:47:42.431Z,77.70
2022-12-14T19:50:12.172Z,77.00
2022-12-14T19:52:38.827Z,78.20
2022-12-14T19:55:05.855Z,77.90
2022-12-14T19:57:32.574Z,84.60
2022-12-14T20:00:00.025Z,82.25
2022-12-14T20:02:27.679Z,73.45
2022-12-14T20:04:54.577Z,73.22
2022-12-14T20:07:21.375Z,62.35
2022-12-14T20:09:48.094Z,67.85
2022-12-14T20:12:14.848Z,65.75
2022-12-14T20:14:42.609Z,71.15
2022-12-14T20:17:11.067Z,74.43
2022-12-14T20:19:39.526Z,72.30
2022-12-14T20:22:07.494Z,60.65
2022-12-14T20:24:34.368Z,63.00
2022-12-14T20:27:01.070Z,61.75
2022-12-14T20:29:27.741Z,61.47
2022-12-14T20:31:55.218Z,63.45
2022-12-14T20:34:22.353Z,64.45
2022-12-14T20:36:49.371Z,60.30
2022-12-14T20:39:16.142Z,64.63
2022-12-14T20:41:42.829Z,58.53
2022-12-14T20:44:13.605Z,59.55
2022-12-14T20:46:44.845Z,61.85
2022-12-14T20:49:17.352Z,61.22
2022-12-14T20:51:45.353Z,54.72
2022-12-14T20:54:16.308Z,64.90
2022-12-14T20:56:43.501Z,58.88
2022-12-14T20:59:11.179Z,60.28
2022-12-14T21:01:39.904Z,61.00
2022-12-14T21:04:07.378Z,59.42
2022-12-14T21:06:38.503Z,61.85
2022-12-14T21:09:06.141Z,57.42
2022-12-14T21:11:53.794Z,61.67
2022-12-14T21:14:22.097Z,56.55
2022-12-14T21:16:48.891Z,55.75
2022-12-14T21:19:18.274Z,59.67
2022-12-14T21:21:49.896Z,52.13
2022-12-14T21:24:52.719Z,59.13
2022-12-14T21:27:09.400Z,58.63
2022-12-14T21:29:36.106Z,56.80
2022-12-14T21:32:04.184Z,63.97
2022-12-14T21:34:31.873Z,58.53
2022-12-14T21:36:59.118Z,60.42
2022-12-14T21:39:25.998Z,70.05
2022-12-14T21:42:12.775Z,72.07
2022-12-14T21:44:44.856Z,71.78
2022-12-14T21:47:23.657Z,72.00
2022-12-14T21:49:50.730Z,70.20
2022-12-14T21:52:20.488Z,71.40
2022-12-14T21:54:47.373Z,74.45
2022-12-14T21:57:38.836Z,68.03
2022-12-14T22:00:07.188Z,63.63
2022-12-14T22:02:41.945Z,56.90
2022-12-14T22:05:10.344Z,56.85
2022-12-14T22:07:37.104Z,52.28
2022-12-14T22:10:04.276Z,62.30
2022-12-14T22:12:30.957Z,47.35
2022-12-14T22:14:57.674Z,53.58
2022-12-14T22:17:24.393Z,49.72
2022-12-14T22:19:52.082Z,53.03
2022-12-14T22:22:18.717Z,55.28
2022-12-14T22:24:49.136Z,54.45
2022-12-14T22:27:15.802Z,50.15
2022-12-14T22:29:42.431Z,58.30
2022-12-14T22:32:11.716Z,59.22
2022-12-14T22:34:38.481Z,52.97
2022-12-14T22:37:05.323Z,50.47
2022-12-14T22:39:32.172Z,53.72
2022-12-14T22:41:58.778Z,46.42
2022-12-14T22:44:25.519Z,49.95
2022-12-14T22:46:52.142Z,51.28
2022-12-14T22:49:19.503Z,46.55
2022-12-14T22:51:47.024Z,51.60
2022-12-14T22:54:22.175Z,52.05
2022-12-14T22:56:54.221Z,54.53
2022-12-14T22:59:34.222Z,49.35
2022-12-14T23:02:01.139Z,58.05
2022-12-14T23:04:28.037Z,60.47
2022-12-14T23:06:55.460Z,51.88
2022-12-14T23:09:41.053Z,52.80
2022-12-14T23:12:26.455Z,57.95
2022-12-14T23:15:11.945Z,59.60
2022-12-14T23:17:57.032Z,54.83
2022-12-14T23:20:42.409Z,60.90
2022-12-14T23:23:28.379Z,58.60
2022-12-14T23:26:14.034Z,58.90
2022-12-14T23:28:59.460Z,56.70
2022-12-14T23:31:44.779Z,61.92
2022-12-14T23:34:30.121Z,58.25
2022-12-14T23:37:20.242Z,53.95
2022-12-14T23:40:06.647Z,61.13
2022-12-14T23:42:52.022Z,71.65
2022-12-14T23:45:37.625Z,63.80
2022-12-14T23:48:23.058Z,69.25
2022-12-14T23:51:08.481Z,67.57
2022-12-14T23:53:53.940Z,70.15
2022-12-14T23:56:39.386Z,67.75
2022-12-14T23:59:29.940Z,71.45
